sensor_id;sensor_type;location;lat;lon;timestamp;P1;durP1;ratioP1;P2;durP2;ratioP2
32106;SDS011;18622;51.998;10.440;2023-08-12T03:33:27;8.70;;;1.87;;
32106;SDS011;18622;51.998;10.440;2023-08-12T03:35:55;4.43;;;1.90;;
32106;SDS011;18622;51.998;10.440;2023-08-12T03:38:22;2.30;;;1.70;;
32106;SDS011;18622;51.998;10.440;2023-08-12T03:40:50;5.77;;;2.20;;
32106;SDS011;18622;51.998;10.440;2023-08-12T03:43:18;4.53;;;1.97;;
32106;SDS011;18622;51.998;10.440;2023-08-12T03:45:46;2.83;;;1.70;;
32106;SDS011;18622;51.998;10.440;2023-08-12T03:48:14;3.30;;;1.80;;
32106;SDS011;18622;51.998;10.440;2023-08-12T03:50:42;8.30;;;2.40;;
32106;SDS011;18622;51.998;10.440;2023-08-12T03:53:11;3.40;;;1.65;;
32106;SDS011;18622;51.998;10.440;2023-08-12T03:55:39;2.70;;;1.47;;
32106;SDS011;18622;51.998;10.440;2023-08-12T03:58:08;2.85;;;1.80;;
32106;SDS011;18622;51.998;10.440;2023-08-12T04:00:40;4.40;;;2.10;;
32106;SDS011;18622;51.998;10.440;2023-08-12T04:03:10;5.10;;;1.83;;
32106;SDS011;18622;51.998;10.440;2023-08-12T04:05:46;2.87;;;1.93;;
32106;SDS011;18622;51.998;10.440;2023-08-12T04:08:22;6.17;;;1.80;;
32106;SDS011;18622;51.998;10.440;2023-08-12T04:10:51;3.63;;;1.70;;
32106;SDS011;18622;51.998;10.440;2023-08-12T04:13:19;5.63;;;1.80;;
32106;SDS011;18622;51.998;10.440;2023-08-12T04:15:50;20.23;;;2.00;;
32106;SDS011;18622;51.998;10.440;2023-08-12T04:18:19;9.97;;;2.27;;
32106;SDS011;18622;51.998;10.440;2023-08-12T04:20:52;7.63;;;1.97;;
32106;SDS011;18622;51.998;10.440;2023-08-12T04:23:17;2.90;;;1.50;;
32106;SDS011;18622;51.998;10.440;2023-08-12T04:25:46;2.95;;;1.42;;
32106;SDS011;18622;51.998;10.440;2023-08-12T04:28:14;1.30;;;1.20;;
32106;SDS011;18622;51.998;10.440;2023-08-12T04:30:48;1.70;;;1.47;;
32106;SDS011;18622;51.998;10.440;2023-08-12T04:33:13;8.80;;;1.70;;
32106;SDS011;18622;51.998;10.440;2023-08-12T04:35:41;2.00;;;1.40;;
32106;SDS011;18622;51.998;10.440;2023-08-12T04:38:10;6.37;;;2.33;;
32106;SDS011;18622;51.998;10.440;2023-08-12T04:40:38;4.00;;;1.80;;
32106;SDS011;18622;51.998;10.440;2023-08-12T04:43:07;5.55;;;2.00;;
32106;SDS011;18622;51.998;10.440;2023-08-12T04:45:35;4.30;;;1.55;;
32106;SDS011;18622;51.998;10.440;2023-08-12T04:48:04;3.67;;;1.72;;
32106;SDS011;18622;51.998;10.440;2023-08-12T04:50:32;2.35;;;1.92;;
32106;SDS011;18622;51.998;10.440;2023-08-12T04:53:00;9.38;;;2.62;;
32106;SDS011;18622;51.998;10.440;2023-08-12T04:55:28;3.00;;;1.83;;
32106;SDS011;18622;51.998;10.440;2023-08-12T04:57:56;9.77;;;1.70;;
32106;SDS011;18622;51.998;10.440;2023-08-12T05:00:24;4.93;;;1.70;;
32106;SDS011;18622;51.998;10.440;2023-08-12T05:02:52;4.40;;;1.60;;
32106;SDS011;18622;51.998;10.440;2023-08-12T05:05:19;2.57;;;1.77;;
32106;SDS011;18622;51.998;10.440;2023-08-12T05:07:47;15.73;;;3.20;;
32106;SDS011;18622;51.998;10.440;2023-08-12T05:10:15;3.03;;;1.70;;
32106;SDS011;18622;51.998;10.440;2023-08-12T05:12:43;6.12;;;1.87;;
32106;SDS011;18622;51.998;10.440;2023-08-12T05:15:13;4.67;;;1.92;;
32106;SDS011;18622;51.998;10.440;2023-08-12T05:17:41;6.37;;;2.10;;
32106;SDS011;18622;51.998;10.440;2023-08-12T05:20:09;3.53;;;1.97;;
32106;SDS011;18622;51.998;10.440;2023-08-12T05:22:37;4.00;;;2.53;;
32106;SDS011;18622;51.998;10.440;2023-08-12T05:25:05;5.03;;;2.10;;
32106;SDS011;18622;51.998;10.440;2023-08-12T05:27:33;2.67;;;2.40;;
32106;SDS011;18622;51.998;10.440;2023-08-12T05:30:01;5.30;;;2.57;;
32106;SDS011;18622;51.998;10.440;2023-08-12T05:32:29;3.20;;;2.27;;
32106;SDS011;18622;51.998;10.440;2023-08-12T05:34:56;6.53;;;2.73;;
32106;SDS011;18622;51.998;10.440;2023-08-12T05:37:24;4.93;;;2.40;;
32106;SDS011;18622;51.998;10.440;2023-08-12T05:39:52;6.90;;;2.83;;
32106;SDS011;18622;51.998;10.440;2023-08-12T05:42:20;4.97;;;2.60;;
32106;SDS011;18622;51.998;10.440;2023-08-12T05:44:48;6.37;;;2.97;;
32106;SDS011;18622;51.998;10.440;2023-08-12T05:47:15;5.47;;;3.10;;
32106;SDS011;18622;51.998;10.440;2023-08-12T05:49:44;4.43;;;3.07;;
32106;SDS011;18622;51.998;10.440;2023-08-12T05:52:11;5.37;;;3.20;;
32106;SDS011;18622;51.998;10.440;2023-08-12T05:54:39;5.10;;;3.00;;
32106;SDS011;18622;51.998;10.440;2023-08-12T05:57:07;3.40;;;3.10;;
32106;SDS011;18622;51.998;10.440;2023-08-12T05:59:35;4.67;;;2.83;;
32106;SDS011;18622;51.998;10.440;2023-08-12T06:02:03;5.27;;;2.90;;
32106;SDS011;18622;51.998;10.440;2023-08-12T06:04:31;4.83;;;3.10;;
32106;SDS011;18622;51.998;10.440;2023-08-12T06:06:59;6.57;;;2.67;;
32106;SDS011;18622;51.998;10.440;2023-08-12T06:09:26;6.60;;;2.60;;
32106;SDS011;18622;51.998;10.440;2023-08-12T06:11:54;5.40;;;2.90;;
32106;SDS011;18622;51.998;10.440;2023-08-12T06:14:22;8.93;;;3.07;;
32106;SDS011;18622;51.998;10.440;2023-08-12T06:16:50;11.23;;;4.07;;
32106;SDS011;18622;51.998;10.440;2023-08-12T06:19:18;7.53;;;3.30;;
32106;SDS011;18622;51.998;10.440;2023-08-12T06:21:45;5.43;;;3.10;;
32106;SDS011;18622;51.998;10.440;2023-08-12T06:24:13;5.03;;;3.13;;
32106;SDS011;18622;51.998;10.440;2023-08-12T06:26:41;5.00;;;3.27;;
32106;SDS011;18622;51.998;10.440;2023-08-12T06:29:09;7.13;;;3.33;;
32106;SDS011;18622;51.998;10.440;2023-08-12T06:31:37;7.03;;;3.23;;
32106;SDS011;18622;51.998;10.440;2023-08-12T06:34:04;4.40;;;3.30;;
32106;SDS011;18622;51.998;10.440;2023-08-12T06:36:32;7.60;;;3.10;;
32106;SDS011;18622;51.998;10.440;2023-08-12T06:39:00;5.73;;;2.87;;
32106;SDS011;18622;51.998;10.440;2023-08-12T06:41:29;6.62;;;2.67;;
32106;SDS011;18622;51.998;10.440;2023-08-12T06:43:57;6.53;;;2.97;;
32106;SDS011;18622;51.998;10.440;2023-08-12T06:46:25;5.00;;;3.07;;
32106;SDS011;18622;51.998;10.440;2023-08-12T06:48:52;3.67;;;3.03;;
32106;SDS011;18622;51.998;10.440;2023-08-12T06:51:20;4.60;;;2.83;;
32106;SDS011;18622;51.998;10.440;2023-08-12T06:53:48;7.37;;;2.60;;
32106;SDS011;18622;51.998;10.440;2023-08-12T06:56:16;5.93;;;2.90;;
32106;SDS011;18622;51.998;10.440;2023-08-12T06:58:44;9.67;;;2.60;;
32106;SDS011;18622;51.998;10.440;2023-08-12T07:01:11;5.80;;;2.70;;
32106;SDS011;18622;51.998;10.440;2023-08-12T07:03:39;4.90;;;2.83;;
32106;SDS011;18622;51.998;10.440;2023-08-12T07:06:07;3.70;;;2.70;;
32106;SDS011;18622;51.998;10.440;2023-08-12T07:08:35;4.50;;;2.53;;
32106;SDS011;18622;51.998;10.440;2023-08-12T07:11:03;3.93;;;2.43;;
32106;SDS011;18622;51.998;10.440;2023-08-12T07:13:30;7.47;;;2.70;;
32106;SDS011;18622;51.998;10.440;2023-08-12T07:16:00;6.25;;;2.75;;
32106;SDS011;18622;51.998;10.440;2023-08-12T07:18:27;3.10;;;2.80;;
32106;SDS011;18622;51.998;10.440;2023-08-12T07:20:55;7.30;;;3.00;;
32106;SDS011;18622;51.998;10.440;2023-08-12T07:23:25;4.00;;;2.87;;
32106;SDS011;18622;51.998;10.440;2023-08-12T07:25:53;5.77;;;2.77;;
32106;SDS011;18622;51.998;10.440;2023-08-12T07:28:21;8.13;;;2.67;;
32106;SDS011;18622;51.998;10.440;2023-08-12T07:30:49;6.00;;;3.00;;
32106;SDS011;18622;51.998;10.440;2023-08-12T07:33:19;5.03;;;2.90;;
32106;SDS011;18622;51.998;10.440;2023-08-12T07:35:47;4.85;;;2.90;;
32106;SDS011;18622;51.998;10.440;2023-08-12T07:38:15;5.80;;;2.70;;
32106;SDS011;18622;51.998;10.440;2023-08-12T07:40:43;2.87;;;2.53;;
32106;SDS011;18622;51.998;10.440;2023-08-12T07:43:11;3.80;;;2.67;;
32106;SDS011;18622;51.998;10.440;2023-08-12T07:45:38;5.30;;;2.53;;
32106;SDS011;18622;51.998;10.440;2023-08-12T07:48:06;6.60;;;2.90;;
32106;SDS011;18622;51.998;10.440;2023-08-12T07:50:34;6.53;;;2.30;;
32106;SDS011;18622;51.998;10.440;2023-08-12T07:53:02;4.97;;;2.37;;
32106;SDS011;18622;51.998;10.440;2023-08-12T07:55:30;5.50;;;2.83;;
32106;SDS011;18622;51.998;10.440;2023-08-12T07:57:58;4.50;;;2.43;;
32106;SDS011;18622;51.998;10.440;2023-08-12T08:00:25;3.67;;;2.90;;
32106;SDS011;18622;51.998;10.440;2023-08-12T08:02:53;7.37;;;3.13;;
32106;SDS011;18622;51.998;10.440;2023-08-12T08:05:21;9.13;;;3.13;;
32106;SDS011;18622;51.998;10.440;2023-08-12T08:07:49;7.53;;;3.17;;
32106;SDS011;18622;51.998;10.440;2023-08-12T08:10:17;7.43;;;2.90;;
32106;SDS011;18622;51.998;10.440;2023-08-12T08:12:44;4.00;;;2.90;;
32106;SDS011;18622;51.998;10.440;2023-08-12T08:15:12;5.10;;;2.87;;
32106;SDS011;18622;51.998;10.440;2023-08-12T08:17:40;4.33;;;2.93;;
32106;SDS011;18622;51.998;10.440;2023-08-12T08:20:08;11.97;;;3.20;;
32106;SDS011;18622;51.998;10.440;2023-08-12T08:22:36;4.78;;;2.60;;
32106;SDS011;18622;51.998;10.440;2023-08-12T08:25:05;5.43;;;2.80;;
32106;SDS011;18622;51.998;10.440;2023-08-12T08:27:33;2.73;;;2.37;;
32106;SDS011;18622;51.998;10.440;2023-08-12T08:30:01;3.30;;;2.87;;
32106;SDS011;18622;51.998;10.440;2023-08-12T08:32:29;11.57;;;2.52;;
32106;SDS011;18622;51.998;10.440;2023-08-12T08:34:57;4.07;;;3.20;;
32106;SDS011;18622;51.998;10.440;2023-08-12T08:37:25;11.33;;;2.70;;
32106;SDS011;18622;51.998;10.440;2023-08-12T08:39:53;9.40;;;3.53;;
32106;SDS011;18622;51.998;10.440;2023-08-12T08:42:20;8.40;;;3.83;;
32106;SDS011;18622;51.998;10.440;2023-08-12T08:44:55;17.57;;;5.25;;
32106;SDS011;18622;51.998;10.440;2023-08-12T08:49:48;17.12;;;4.03;;
32106;SDS011;18622;51.998;10.440;2023-08-12T08:52:16;14.75;;;5.28;;
32106;SDS011;18622;51.998;10.440;2023-08-12T08:54:45;20.37;;;6.92;;
32106;SDS011;18622;51.998;10.440;2023-08-12T08:57:13;20.67;;;6.20;;
32106;SDS011;18622;51.998;10.440;2023-08-12T08:59:41;15.73;;;5.30;;
32106;SDS011;18622;51.998;10.440;2023-08-12T09:02:12;10.90;;;3.97;;
32106;SDS011;18622;51.998;10.440;2023-08-12T09:04:41;9.13;;;3.30;;
32106;SDS011;18622;51.998;10.440;2023-08-12T09:07:11;7.27;;;3.10;;
32106;SDS011;18622;51.998;10.440;2023-08-12T09:09:44;3.90;;;2.98;;
32106;SDS011;18622;51.998;10.440;2023-08-12T09:12:14;9.48;;;3.62;;
32106;SDS011;18622;51.998;10.440;2023-08-12T09:14:43;8.78;;;3.40;;
32106;SDS011;18622;51.998;10.440;2023-08-12T09:17:11;10.27;;;4.43;;
32106;SDS011;18622;51.998;10.440;2023-08-12T09:19:39;11.17;;;4.03;;
32106;SDS011;18622;51.998;10.440;2023-08-12T09:22:07;5.57;;;3.23;;
32106;SDS011;18622;51.998;10.440;2023-08-12T09:24:37;9.88;;;6.60;;
32106;SDS011;18622;51.998;10.440;2023-08-12T09:27:05;9.07;;;7.63;;
32106;SDS011;18622;51.998;10.440;2023-08-12T09:29:34;6.27;;;4.43;;
32106;SDS011;18622;51.998;10.440;2023-08-12T09:32:20;3.67;;;3.15;;
32106;SDS011;18622;51.998;10.440;2023-08-12T09:34:45;5.57;;;2.70;;
32106;SDS011;18622;51.998;10.440;2023-08-12T09:37:18;5.10;;;4.60;;
32106;SDS011;18622;51.998;10.440;2023-08-12T09:39:47;7.33;;;3.20;;
32106;SDS011;18622;51.998;10.440;2023-08-12T09:42:15;4.35;;;3.55;;
32106;SDS011;18622;51.998;10.440;2023-08-12T09:44:43;13.60;;;9.90;;
32106;SDS011;18622;51.998;10.440;2023-08-12T09:47:12;20.02;;;17.70;;
32106;SDS011;18622;51.998;10.440;2023-08-12T09:49:40;17.77;;;15.20;;
32106;SDS011;18622;51.998;10.440;2023-08-12T09:52:08;5.27;;;4.87;;
32106;SDS011;18622;51.998;10.440;2023-08-12T09:54:36;28.23;;;23.90;;
32106;SDS011;18622;51.998;10.440;2023-08-12T09:57:05;4.47;;;2.60;;
32106;SDS011;18622;51.998;10.440;2023-08-12T09:59:35;4.13;;;2.87;;
32106;SDS011;18622;51.998;10.440;2023-08-12T10:02:03;13.47;;;8.53;;
32106;SDS011;18622;51.998;10.440;2023-08-12T10:04:39;11.13;;;4.80;;
32106;SDS011;18622;51.998;10.440;2023-08-12T10:07:11;11.67;;;5.17;;
32106;SDS011;18622;51.998;10.440;2023-08-12T10:09:41;16.57;;;10.78;;
32106;SDS011;18622;51.998;10.440;2023-08-12T10:12:09;13.33;;;9.23;;
32106;SDS011;18622;51.998;10.440;2023-08-12T10:14:38;11.28;;;5.08;;
32106;SDS011;18622;51.998;10.440;2023-08-12T10:17:06;11.00;;;5.03;;
32106;SDS011;18622;51.998;10.440;2023-08-12T10:19:35;6.42;;;2.90;;
32106;SDS011;18622;51.998;10.440;2023-08-12T10:22:03;2.87;;;2.30;;
32106;SDS011;18622;51.998;10.440;2023-08-12T10:24:31;5.50;;;3.20;;
32106;SDS011;18622;51.998;10.440;2023-08-12T10:27:01;4.33;;;2.85;;
32106;SDS011;18622;51.998;10.440;2023-08-12T10:29:29;9.57;;;4.33;;
32106;SDS011;18622;51.998;10.440;2023-08-12T10:31:57;4.12;;;2.60;;
32106;SDS011;18622;51.998;10.440;2023-08-12T10:34:26;2.00;;;1.90;;
32106;SDS011;18622;51.998;10.440;2023-08-12T10:36:54;3.83;;;2.07;;
32106;SDS011;18622;51.998;10.440;2023-08-12T10:39:28;2.65;;;1.90;;
32106;SDS011;18622;51.998;10.440;2023-08-12T10:41:55;2.20;;;1.87;;
32106;SDS011;18622;51.998;10.440;2023-08-12T10:44:27;2.17;;;1.98;;
32106;SDS011;18622;51.998;10.440;2023-08-12T10:46:57;2.60;;;1.60;;
32106;SDS011;18622;51.998;10.440;2023-08-12T10:49:25;2.77;;;1.67;;
32106;SDS011;18622;51.998;10.440;2023-08-12T10:51:53;3.40;;;2.23;;
32106;SDS011;18622;51.998;10.440;2023-08-12T10:54:24;1.90;;;1.70;;
32106;SDS011;18622;51.998;10.440;2023-08-12T10:59:56;2.27;;;1.70;;
32106;SDS011;18622;51.998;10.440;2023-08-12T11:05:09;1.70;;;1.60;;
32106;SDS011;18622;51.998;10.440;2023-08-12T11:07:38;4.55;;;2.10;;
32106;SDS011;18622;51.998;10.440;2023-08-12T11:10:14;3.55;;;1.95;;
32106;SDS011;18622;51.998;10.440;2023-08-12T11:15:34;4.00;;;2.50;;
32106;SDS011;18622;51.998;10.440;2023-08-12T11:18:08;4.30;;;2.63;;
32106;SDS011;18622;51.998;10.440;2023-08-12T11:20:38;4.03;;;1.90;;
32106;SDS011;18622;51.998;10.440;2023-08-12T11:23:07;2.00;;;1.87;;
32106;SDS011;18622;51.998;10.440;2023-08-12T11:25:36;4.03;;;2.40;;
32106;SDS011;18622;51.998;10.440;2023-08-12T11:28:05;1.70;;;1.60;;
32106;SDS011;18622;51.998;10.440;2023-08-12T11:30:34;2.85;;;1.92;;
32106;SDS011;18622;51.998;10.440;2023-08-12T11:33:02;2.00;;;1.90;;
32106;SDS011;18622;51.998;10.440;2023-08-12T11:35:30;3.23;;;2.00;;
32106;SDS011;18622;51.998;10.440;2023-08-12T11:37:58;2.40;;;1.90;;
32106;SDS011;18622;51.998;10.440;2023-08-12T11:40:27;2.93;;;2.10;;
32106;SDS011;18622;51.998;10.440;2023-08-12T11:45:22;5.83;;;2.15;;
32106;SDS011;18622;51.998;10.440;2023-08-12T11:47:51;3.20;;;2.10;;
32106;SDS011;18622;51.998;10.440;2023-08-12T11:50:20;2.05;;;1.90;;
32106;SDS011;18622;51.998;10.440;2023-08-12T11:52:50;3.72;;;2.25;;
32106;SDS011;18622;51.998;10.440;2023-08-12T11:55:18;2.65;;;2.45;;
32106;SDS011;18622;51.998;10.440;2023-08-12T11:57:46;2.80;;;1.63;;
32106;SDS011;18622;51.998;10.440;2023-08-12T12:00:14;4.77;;;1.80;;
32106;SDS011;18622;51.998;10.440;2023-08-12T12:02:53;2.30;;;2.10;;
32106;SDS011;18622;51.998;10.440;2023-08-12T12:05:23;1.60;;;1.55;;
32106;SDS011;18622;51.998;10.440;2023-08-12T12:07:52;1.90;;;1.80;;
32106;SDS011;18622;51.998;10.440;2023-08-12T12:10:21;3.37;;;1.80;;
32106;SDS011;18622;51.998;10.440;2023-08-12T12:13:00;2.35;;;2.00;;
32106;SDS011;18622;51.998;10.440;2023-08-12T12:15:29;1.82;;;1.72;;
32106;SDS011;18622;51.998;10.440;2023-08-12T12:17:57;2.12;;;2.02;;
32106;SDS011;18622;51.998;10.440;2023-08-12T12:20:25;5.95;;;2.92;;
32106;SDS011;18622;51.998;10.440;2023-08-12T12:22:54;3.45;;;3.05;;
32106;SDS011;18622;51.998;10.440;2023-08-12T12:25:22;2.50;;;2.30;;
32106;SDS011;18622;51.998;10.440;2023-08-12T12:27:49;1.80;;;1.70;;
32106;SDS011;18622;51.998;10.440;2023-08-12T12:30:19;1.87;;;1.60;;
32106;SDS011;18622;51.998;10.440;2023-08-12T12:32:47;1.93;;;1.73;;
32106;SDS011;18622;51.998;10.440;2023-08-12T12:35:14;1.80;;;1.70;;
32106;SDS011;18622;51.998;10.440;2023-08-12T12:37:42;2.00;;;1.80;;
32106;SDS011;18622;51.998;10.440;2023-08-12T12:40:10;2.57;;;1.87;;
32106;SDS011;18622;51.998;10.440;2023-08-12T12:42:38;2.10;;;1.93;;
32106;SDS011;18622;51.998;10.440;2023-08-12T12:45:06;4.35;;;2.20;;
32106;SDS011;18622;51.998;10.440;2023-08-12T12:47:34;2.17;;;1.98;;
32106;SDS011;18622;51.998;10.440;2023-08-12T12:52:30;2.58;;;2.37;;
32106;SDS011;18622;51.998;10.440;2023-08-12T12:54:58;2.30;;;1.95;;
32106;SDS011;18622;51.998;10.440;2023-08-12T12:57:26;3.25;;;2.25;;
32106;SDS011;18622;51.998;10.440;2023-08-12T12:59:54;2.65;;;1.95;;
32106;SDS011;18622;51.998;10.440;2023-08-12T13:02:21;1.98;;;1.87;;
32106;SDS011;18622;51.998;10.440;2023-08-12T13:04:49;2.25;;;2.10;;
32106;SDS011;18622;51.998;10.440;2023-08-12T13:07:16;2.23;;;2.13;;
32106;SDS011;18622;51.998;10.440;2023-08-12T13:09:44;2.00;;;1.90;;
32106;SDS011;18622;51.998;10.440;2023-08-12T13:12:12;1.80;;;1.70;;
32106;SDS011;18622;51.998;10.440;2023-08-12T13:14:40;2.00;;;1.90;;
32106;SDS011;18622;51.998;10.440;2023-08-12T13:17:08;1.87;;;1.77;;
32106;SDS011;18622;51.998;10.440;2023-08-12T13:19:35;2.77;;;1.60;;
32106;SDS011;18622;51.998;10.440;2023-08-12T13:22:03;2.00;;;1.87;;
32106;SDS011;18622;51.998;10.440;2023-08-12T13:24:31;1.80;;;1.70;;
32106;SDS011;18622;51.998;10.440;2023-08-12T13:26:59;1.87;;;1.63;;
32106;SDS011;18622;51.998;10.440;2023-08-12T13:29:27;1.90;;;1.80;;
32106;SDS011;18622;51.998;10.440;2023-08-12T13:31:56;3.73;;;1.80;;
32106;SDS011;18622;51.998;10.440;2023-08-12T13:34:24;1.60;;;1.50;;
32106;SDS011;18622;51.998;10.440;2023-08-12T13:36:52;1.60;;;1.50;;
32106;SDS011;18622;51.998;10.440;2023-08-12T13:39:19;3.27;;;1.20;;
32106;SDS011;18622;51.998;10.440;2023-08-12T13:41:48;2.03;;;1.40;;
32106;SDS011;18622;51.998;10.440;2023-08-12T13:44:15;2.57;;;1.50;;
32106;SDS011;18622;51.998;10.440;2023-08-12T13:46:43;2.47;;;1.40;;
32106;SDS011;18622;51.998;10.440;2023-08-12T13:49:11;1.10;;;1.10;;
32106;SDS011;18622;51.998;10.440;2023-08-12T13:51:39;4.83;;;1.63;;
32106;SDS011;18622;51.998;10.440;2023-08-12T13:54:07;2.03;;;1.30;;
32106;SDS011;18622;51.998;10.440;2023-08-12T13:56:34;3.30;;;1.63;;
32106;SDS011;18622;51.998;10.440;2023-08-12T13:59:02;5.53;;;1.40;;
32106;SDS011;18622;51.998;10.440;2023-08-12T14:01:30;2.30;;;1.43;;
32106;SDS011;18622;51.998;10.440;2023-08-12T14:03:58;1.47;;;1.37;;
32106;SDS011;18622;51.998;10.440;2023-08-12T14:06:26;1.30;;;1.20;;
32106;SDS011;18622;51.998;10.440;2023-08-12T14:08:54;1.53;;;1.43;;
32106;SDS011;18622;51.998;10.440;2023-08-12T14:11:22;1.40;;;1.30;;
32106;SDS011;18622;51.998;10.440;2023-08-12T14:13:49;1.30;;;1.20;;
32106;SDS011;18622;51.998;10.440;2023-08-12T14:16:17;1.63;;;1.30;;
32106;SDS011;18622;51.998;10.440;2023-08-12T14:18:45;1.40;;;1.30;;
32106;SDS011;18622;51.998;10.440;2023-08-12T14:21:13;3.07;;;1.33;;
32106;SDS011;18622;51.998;10.440;2023-08-12T14:23:41;1.23;;;1.23;;
32106;SDS011;18622;51.998;10.440;2023-08-12T14:26:09;1.13;;;1.10;;
32106;SDS011;18622;51.998;10.440;2023-08-12T14:28:37;1.83;;;1.30;;
32106;SDS011;18622;51.998;10.440;2023-08-12T14:31:04;1.23;;;1.13;;
32106;SDS011;18622;51.998;10.440;2023-08-12T14:33:32;1.47;;;1.37;;
32106;SDS011;18622;51.998;10.440;2023-08-12T14:36:00;1.50;;;1.40;;
32106;SDS011;18622;51.998;10.440;2023-08-12T14:38:28;1.77;;;1.63;;
32106;SDS011;18622;51.998;10.440;2023-08-12T14:40:56;1.47;;;1.37;;
32106;SDS011;18622;51.998;10.440;2023-08-12T14:43:23;2.07;;;1.20;;
32106;SDS011;18622;51.998;10.440;2023-08-12T14:45:51;1.00;;;1.00;;
32106;SDS011;18622;51.998;10.440;2023-08-12T14:48:19;1.30;;;1.20;;
32106;SDS011;18622;51.998;10.440;2023-08-12T14:50:47;2.30;;;1.23;;
32106;SDS011;18622;51.998;10.440;2023-08-12T14:53:16;3.40;;;1.17;;
32106;SDS011;18622;51.998;10.440;2023-08-12T14:55:44;1.40;;;1.30;;
32106;SDS011;18622;51.998;10.440;2023-08-12T14:58:12;2.70;;;1.17;;
32106;SDS011;18622;51.998;10.440;2023-08-12T15:00:40;1.50;;;1.40;;
32106;SDS011;18622;51.998;10.440;2023-08-12T15:03:08;1.77;;;1.07;;
32106;SDS011;18622;51.998;10.440;2023-08-12T15:05:37;1.87;;;1.60;;
32106;SDS011;18622;51.998;10.440;2023-08-12T15:08:05;2.67;;;1.23;;
32106;SDS011;18622;51.998;10.440;2023-08-12T15:10:33;1.30;;;1.20;;
32106;SDS011;18622;51.998;10.440;2023-08-12T15:13:01;3.07;;;1.23;;
32106;SDS011;18622;51.998;10.440;2023-08-12T15:15:28;1.30;;;1.20;;
32106;SDS011;18622;51.998;10.440;2023-08-12T15:17:56;2.12;;;1.35;;
32106;SDS011;18622;51.998;10.440;2023-08-12T15:20:24;1.53;;;1.43;;
32106;SDS011;18622;51.998;10.440;2023-08-12T15:22:52;1.67;;;1.20;;
32106;SDS011;18622;51.998;10.440;2023-08-12T15:25:20;3.13;;;1.40;;
32106;SDS011;18622;51.998;10.440;2023-08-12T15:27:48;1.53;;;1.40;;
32106;SDS011;18622;51.998;10.440;2023-08-12T15:30:15;1.60;;;1.50;;
32106;SDS011;18622;51.998;10.440;2023-08-12T15:32:43;4.17;;;1.70;;
32106;SDS011;18622;51.998;10.440;2023-08-12T15:35:11;1.67;;;1.57;;
32106;SDS011;18622;51.998;10.440;2023-08-12T15:37:39;1.70;;;1.60;;
32106;SDS011;18622;51.998;10.440;2023-08-12T15:40:07;1.50;;;1.40;;
32106;SDS011;18622;51.998;10.440;2023-08-12T15:42:35;1.87;;;1.60;;
32106;SDS011;18622;51.998;10.440;2023-08-12T15:47:32;1.82;;;1.20;;
32106;SDS011;18622;51.998;10.440;2023-08-12T15:50:01;1.30;;;1.20;;
32106;SDS011;18622;51.998;10.440;2023-08-12T15:52:29;1.47;;;1.23;;
32106;SDS011;18622;51.998;10.440;2023-08-12T15:54:58;1.43;;;1.20;;
32106;SDS011;18622;51.998;10.440;2023-08-12T15:57:26;3.20;;;1.20;;
32106;SDS011;18622;51.998;10.440;2023-08-12T15:59:54;1.63;;;1.07;;
32106;SDS011;18622;51.998;10.440;2023-08-12T16:02:22;0.80;;;0.80;;
32106;SDS011;18622;51.998;10.440;2023-08-12T16:04:49;1.50;;;0.77;;
32106;SDS011;18622;51.998;10.440;2023-08-12T16:07:17;0.80;;;0.80;;
32106;SDS011;18622;51.998;10.440;2023-08-12T16:09:45;3.53;;;1.10;;
32106;SDS011;18622;51.998;10.440;2023-08-12T16:12:13;1.10;;;0.83;;
32106;SDS011;18622;51.998;10.440;2023-08-12T16:17:09;1.27;;;1.05;;
32106;SDS011;18622;51.998;10.440;2023-08-12T16:19:37;2.50;;;1.20;;
32106;SDS011;18622;51.998;10.440;2023-08-12T16:22:04;2.33;;;1.10;;
32106;SDS011;18622;51.998;10.440;2023-08-12T16:24:32;2.73;;;1.37;;
32106;SDS011;18622;51.998;10.440;2023-08-12T16:27:00;2.23;;;1.10;;
32106;SDS011;18622;51.998;10.440;2023-08-12T16:29:29;1.47;;;1.37;;
32106;SDS011;18622;51.998;10.440;2023-08-12T16:31:57;2.23;;;1.37;;
32106;SDS011;18622;51.998;10.440;2023-08-12T16:34:25;3.30;;;1.87;;
32106;SDS011;18622;51.998;10.440;2023-08-12T16:36:52;2.47;;;1.37;;
32106;SDS011;18622;51.998;10.440;2023-08-12T16:39:20;2.20;;;1.40;;
32106;SDS011;18622;51.998;10.440;2023-08-12T16:41:48;1.52;;;1.42;;
32106;SDS011;18622;51.998;10.440;2023-08-12T16:44:15;1.97;;;1.27;;
32106;SDS011;18622;51.998;10.440;2023-08-12T16:46:43;1.60;;;1.50;;
32106;SDS011;18622;51.998;10.440;2023-08-12T16:49:11;2.07;;;1.43;;
32106;SDS011;18622;51.998;10.440;2023-08-12T16:51:39;1.27;;;1.20;;
32106;SDS011;18622;51.998;10.440;2023-08-12T16:54:06;2.57;;;1.50;;
32106;SDS011;18622;51.998;10.440;2023-08-12T16:56:34;1.50;;;1.40;;
32106;SDS011;18622;51.998;10.440;2023-08-12T16:59:02;2.50;;;1.20;;
32106;SDS011;18622;51.998;10.440;2023-08-12T17:01:30;1.50;;;1.13;;
32106;SDS011;18622;51.998;10.440;2023-08-12T17:03:58;2.17;;;1.30;;
32106;SDS011;18622;51.998;10.440;2023-08-12T17:06:27;2.08;;;1.30;;
32106;SDS011;18622;51.998;10.440;2023-08-12T17:08:55;3.30;;;1.50;;
32106;SDS011;18622;51.998;10.440;2023-08-12T17:11:23;3.20;;;1.50;;
32106;SDS011;18622;51.998;10.440;2023-08-12T17:13:50;2.27;;;1.47;;
32106;SDS011;18622;51.998;10.440;2023-08-12T17:16:18;1.50;;;1.40;;
32106;SDS011;18622;51.998;10.440;2023-08-12T17:18:46;1.50;;;1.20;;
32106;SDS011;18622;51.998;10.440;2023-08-12T17:21:14;1.33;;;1.10;;
32106;SDS011;18622;51.998;10.440;2023-08-12T17:23:42;1.60;;;1.40;;
32106;SDS011;18622;51.998;10.440;2023-08-12T17:26:09;2.73;;;1.47;;
32106;SDS011;18622;51.998;10.440;2023-08-12T17:28:37;1.40;;;1.27;;
32106;SDS011;18622;51.998;10.440;2023-08-12T17:31:05;1.53;;;1.20;;
32106;SDS011;18622;51.998;10.440;2023-08-12T17:33:34;1.87;;;1.32;;
32106;SDS011;18622;51.998;10.440;2023-08-12T17:36:02;1.30;;;1.20;;
32106;SDS011;18622;51.998;10.440;2023-08-12T17:38:30;2.02;;;1.20;;
32106;SDS011;18622;51.998;10.440;2023-08-12T17:40:58;1.27;;;1.17;;
32106;SDS011;18622;51.998;10.440;2023-08-12T17:43:26;1.20;;;1.10;;
32106;SDS011;18622;51.998;10.440;2023-08-12T17:45:53;1.30;;;1.20;;
32106;SDS011;18622;51.998;10.440;2023-08-12T17:48:22;2.23;;;0.93;;
32106;SDS011;18622;51.998;10.440;2023-08-12T17:50:49;2.10;;;1.20;;
32106;SDS011;18622;51.998;10.440;2023-08-12T17:53:17;1.13;;;0.90;;
32106;SDS011;18622;51.998;10.440;2023-08-12T17:55:45;1.33;;;1.00;;
32106;SDS011;18622;51.998;10.440;2023-08-12T17:58:13;1.03;;;1.00;;
32106;SDS011;18622;51.998;10.440;2023-08-12T18:00:41;0.90;;;0.90;;
32106;SDS011;18622;51.998;10.440;2023-08-12T18:03:08;1.77;;;1.10;;
32106;SDS011;18622;51.998;10.440;2023-08-12T18:05:36;1.00;;;0.90;;
32106;SDS011;18622;51.998;10.440;2023-08-12T18:08:04;0.87;;;0.80;;
32106;SDS011;18622;51.998;10.440;2023-08-12T18:10:32;3.03;;;0.90;;
32106;SDS011;18622;51.998;10.440;2023-08-12T18:13:00;1.40;;;0.97;;
32106;SDS011;18622;51.998;10.440;2023-08-12T18:15:28;2.87;;;1.30;;
32106;SDS011;18622;51.998;10.440;2023-08-12T18:20:33;2.30;;;0.90;;
32106;SDS011;18622;51.998;10.440;2023-08-12T18:23:01;1.53;;;1.10;;
32106;SDS011;18622;51.998;10.440;2023-08-12T18:25:29;1.23;;;1.00;;
32106;SDS011;18622;51.998;10.440;2023-08-12T18:27:57;1.07;;;0.90;;
32106;SDS011;18622;51.998;10.440;2023-08-12T18:30:25;1.20;;;1.00;;
32106;SDS011;18622;51.998;10.440;2023-08-12T18:32:52;0.90;;;0.90;;
32106;SDS011;18622;51.998;10.440;2023-08-12T18:35:20;0.80;;;0.80;;